Time;durP1;ratioP1;P1;durP2;ratioP2;P2;SDS_P1;SDS_P2;PMS_P1;PMS_P2;Temp;Humidity;BMP_temperature;BMP_pressure;BME280_temperature;BME280_humidity;BME280_pressure;Samples;Min_cycle;Max_cycle;Signal;HPM_P1;HPM_P2
2022/02/07 00:01:12;;;;;;;7.78;5.13;;;5.20;64.20;;;;;;5061648;28;20044;-58
2022/02/07 00:06:04;;;;;;;6.60;5.10;;;5.10;64.30;;;;;;5062258;28;20049;-58
2022/02/07 00:08:32;;;;;;;9.77;5.07;;;5.00;64.40;;;;;;5070154;28;20068;-58
2022/02/07 00:10:57;;;;;;;7.47;5.70;;;5.00;64.40;;;;;;5069627;28;20082;-58
2022/02/07 00:13:23;;;;;;;7.32;6.28;;;5.00;64.50;;;;;;5067201;28;20408;-58
2022/02/07 00:15:48;;;;;;;6.93;4.18;;;5.00;64.40;;;;;;5061780;28;20021;-58
2022/02/07 00:18:16;;;;;;;8.25;5.88;;;5.00;64.30;;;;;;5072654;28;20047;-59
2022/02/07 00:20:41;;;;;;;5.85;4.18;;;4.90;64.40;;;;;;5066634;28;20039;-58
2022/02/07 00:23:08;;;;;;;9.68;5.38;;;4.90;64.40;;;;;;5073557;28;20020;-58
2022/02/07 00:25:34;;;;;;;6.80;4.63;;;4.90;64.50;;;;;;5073724;28;20442;-58
2022/02/07 00:28:00;;;;;;;8.40;5.53;;;4.80;64.40;;;;;;5074221;28;20091;-59
2022/02/07 00:30:26;;;;;;;8.77;4.90;;;4.80;64.50;;;;;;5084966;28;20116;-58
2022/02/07 00:32:52;;;;;;;5.57;4.38;;;4.70;64.50;;;;;;5076893;28;20124;-58
2022/02/07 00:35:21;;;;;;;8.52;6.40;;;4.70;64.50;;;;;;5072495;28;20040;-58
2022/02/07 00:37:49;;;;;;;8.02;4.47;;;4.70;64.60;;;;;;5067594;28;20024;-58
2022/02/07 00:41:15;;;;;;;8.05;4.82;;;4.60;65.10;;;;;;5074635;28;20476;-58
2022/02/07 00:43:14;;;;;;;8.10;5.03;;;4.60;64.60;;;;;;5059850;28;20040;-58
2022/02/07 00:45:49;;;;;;;7.68;5.30;;;4.50;64.70;;;;;;5071337;28;20416;-58
2022/02/07 00:48:14;;;;;;;7.78;5.72;;;4.50;65.00;;;;;;5073639;28;20396;-59
2022/02/07 00:50:43;;;;;;;9.20;5.38;;;4.50;65.00;;;;;;5072927;28;20025;-58
2022/02/07 00:53:13;;;;;;;7.85;5.97;;;4.50;65.10;;;;;;5074427;28;20024;-58
2022/02/07 00:55:39;;;;;;;8.13;6.38;;;4.50;65.20;;;;;;5070921;28;20029;-58
2022/02/07 00:58:04;;;;;;;7.18;5.35;;;4.50;65.30;;;;;;5054439;28;20032;-58
2022/02/07 01:00:31;;;;;;;9.18;5.93;;;4.50;65.30;;;;;;5054109;28;20087;-58
2022/02/07 01:02:57;;;;;;;7.57;4.90;;;4.40;65.20;;;;;;5054111;28;20469;-58
2022/02/07 01:05:22;;;;;;;10.52;7.45;;;4.40;65.30;;;;;;5067717;28;20090;-58
2022/02/07 01:07:50;;;;;;;8.70;7.03;;;4.50;65.40;;;;;;5073693;28;20021;-58
2022/02/07 01:10:23;;;;;;;8.20;5.88;;;4.50;65.10;;;;;;5073788;28;20074;-58
2022/02/07 01:15:30;;;;;;;8.38;5.25;;;4.40;65.00;;;;;;5054554;28;20017;-58
2022/02/07 01:48:54;;;;;;;28.80;16.92;;;4.20;64.80;;;;;;5073474;28;20031;-58
2022/02/07 01:56:09;;;;;;;35.03;16.45;;;4.20;64.90;;;;;;5073497;28;20028;-58
2022/02/07 01:58:34;;;;;;;43.78;28.27;;;4.10;64.90;;;;;;5072990;28;20054;-58
2022/02/07 02:01:00;;;;;;;37.63;16.92;;;4.10;65.30;;;;;;5072957;28;20032;-58
2022/02/07 02:03:26;;;;;;;26.17;18.88;;;4.10;65.40;;;;;;5073151;28;20036;-58
2022/02/07 02:05:52;;;;;;;18.90;10.15;;;4.10;65.70;;;;;;5060201;28;20085;-58
2022/02/07 02:08:19;;;;;;;15.90;8.15;;;4.20;65.60;;;;;;5070911;28;20037;-58
2022/02/07 02:10:48;;;;;;;11.88;8.05;;;4.10;65.40;;;;;;5072643;28;20103;-58
2022/02/07 02:13:26;;;;;;;13.27;9.57;;;4.10;65.40;;;;;;5072577;28;20016;-58
2022/02/07 02:47:49;;;;;;;10.57;6.65;;;4.00;65.90;;;;;;5072595;28;20067;-58
2022/02/07 02:53:14;;;;;;;11.82;6.68;;;4.00;66.20;;;;;;5027433;28;20389;-58
2022/02/07 02:55:43;;;;;;;10.32;7.70;;;4.00;66.20;;;;;;5072329;28;20023;-58
2022/02/07 02:58:12;;;;;;;9.63;8.25;;;4.10;66.20;;;;;;5074136;28;20039;-58
2022/02/07 03:00:39;;;;;;;10.68;6.68;;;4.20;65.90;;;;;;5076397;28;20025;-58
2022/02/07 03:03:05;;;;;;;9.80;8.80;;;4.20;65.70;;;;;;5076259;28;20052;-58
2022/02/07 03:05:31;;;;;;;9.63;6.53;;;4.20;65.80;;;;;;5075269;28;20064;-58
2022/02/07 03:07:58;;;;;;;10.30;6.88;;;4.20;65.70;;;;;;5076285;28;20025;-58
2022/02/07 03:10:42;;;;;;;12.05;8.80;;;4.20;66.10;;;;;;5076365;28;20020;-58
2022/02/07 03:18:17;;;;;;;10.68;8.23;;;4.20;66.00;;;;;;5076220;28;20031;-58
2022/02/07 03:20:43;;;;;;;9.43;6.88;;;4.20;66.10;;;;;;5075998;28;20029;-58
2022/02/07 03:23:09;;;;;;;11.05;8.95;;;4.20;65.80;;;;;;5071353;28;20078;-58
2022/02/07 03:25:35;;;;;;;8.73;6.38;;;4.20;65.80;;;;;;5075723;28;20031;-58
2022/02/07 03:28:01;;;;;;;11.80;9.38;;;4.20;65.70;;;;;;5075685;28;20032;-58
2022/02/07 03:30:27;;;;;;;12.23;10.07;;;4.20;65.80;;;;;;5075949;28;20056;-58
2022/02/07 03:32:53;;;;;;;11.20;7.95;;;4.20;65.60;;;;;;5079561;28;20510;-58
2022/02/07 03:35:20;;;;;;;11.68;7.85;;;4.20;65.50;;;;;;5069789;28;20447;-59
2022/02/07 03:37:45;;;;;;;11.30;9.63;;;4.20;65.60;;;;;;5072957;28;20037;-58
2022/02/07 03:40:12;;;;;;;12.90;11.00;;;4.20;65.80;;;;;;5059319;28;20385;-58
2022/02/07 03:42:37;;;;;;;12.13;7.28;;;4.20;65.60;;;;;;5063838;28;20017;-58
2022/02/07 03:45:05;;;;;;;12.23;7.50;;;4.20;65.40;;;;;;5078975;28;20082;-58
2022/02/07 03:47:31;;;;;;;11.63;8.93;;;4.10;65.50;;;;;;5075358;28;20493;-58
2022/02/07 03:49:57;;;;;;;11.13;7.53;;;4.10;65.70;;;;;;5073539;28;20099;-58
2022/02/07 03:52:23;;;;;;;11.85;9.80;;;4.10;65.70;;;;;;5055403;28;20017;-58
2022/02/07 03:54:49;;;;;;;11.50;7.30;;;4.10;65.80;;;;;;5055374;28;20535;-58
2022/02/07 03:57:15;;;;;;;14.95;10.73;;;4.10;65.80;;;;;;5055361;28;20052;-58
2022/02/07 03:59:41;;;;;;;12.05;7.47;;;4.10;65.90;;;;;;5063376;28;20052;-58
2022/02/07 04:02:06;;;;;;;9.82;8.82;;;4.10;65.80;;;;;;5075048;28;20496;-58
2022/02/07 04:04:32;;;;;;;9.43;6.70;;;4.10;65.90;;;;;;5064761;28;20028;-58
2022/02/07 04:06:58;;;;;;;11.10;9.38;;;4.10;65.80;;;;;;5072581;28;20481;-58
2022/02/07 04:09:30;;;;;;;10.55;6.97;;;4.20;66.00;;;;;;5073555;28;20047;-58
2022/02/07 04:12:06;;;;;;;10.98;9.77;;;4.20;66.00;;;;;;5073092;28;20372;-58
2022/02/07 04:14:32;;;;;;;9.18;6.35;;;4.20;66.10;;;;;;5075006;28;20436;-58
2022/02/07 04:16:58;;;;;;;10.98;9.20;;;4.20;65.80;;;;;;5074927;28;20443;-58
2022/02/07 04:19:31;;;;;;;9.80;7.30;;;4.20;66.00;;;;;;5067864;28;20099;-58
2022/02/07 04:21:56;;;;;;;9.90;6.75;;;4.20;65.90;;;;;;5075191;28;20038;-58
2022/02/07 04:24:22;;;;;;;11.40;6.72;;;4.20;66.00;;;;;;5074705;28;20480;-58
2022/02/07 04:26:48;;;;;;;11.07;9.25;;;4.10;66.00;;;;;;5074890;28;20099;-58
2022/02/07 04:29:13;;;;;;;13.13;9.93;;;4.20;66.10;;;;;;5074767;28;20064;-58
2022/02/07 04:31:39;;;;;;;12.25;10.57;;;4.20;66.00;;;;;;5055249;28;20028;-57
2022/02/07 04:34:05;;;;;;;10.43;7.68;;;4.20;65.90;;;;;;5065171;28;20076;-58
2022/02/07 04:36:31;;;;;;;11.68;10.43;;;4.30;65.90;;;;;;5074903;28;20039;-58
2022/02/07 04:38:56;;;;;;;13.85;10.63;;;4.30;66.10;;;;;;5074870;28;20024;-58
2022/02/07 04:41:25;;;;;;;18.65;14.63;;;4.30;66.00;;;;;;5074529;28;20479;-58
2022/02/07 04:43:57;;;;;;;23.77;13.38;;;4.40;65.80;;;;;;5074755;28;20020;-58
2022/02/07 04:49:24;;;;;;;50.78;34.55;;;4.40;65.90;;;;;;5074048;28;20515;-58
2022/02/07 05:03:02;;;;;;;45.53;29.67;;;4.40;66.10;;;;;;5074318;28;20060;-58
2022/02/07 05:13:44;;;;;;;33.72;15.30;;;4.70;65.70;;;;;;5073895;28;20106;-58
2022/02/07 05:16:18;;;;;;;27.42;19.45;;;4.60;65.50;;;;;;5073924;28;20031;-58
2022/02/07 05:18:44;;;;;;;20.75;12.13;;;4.70;65.70;;;;;;5074018;28;20480;-59
2022/02/07 05:21:11;;;;;;;17.83;10.88;;;4.70;65.70;;;;;;5073612;28;20096;-59
2022/02/07 05:23:37;;;;;;;20.27;11.45;;;4.70;65.80;;;;;;5069469;28;20047;-58
2022/02/07 05:26:03;;;;;;;20.63;15.80;;;4.70;65.70;;;;;;5073746;28;20020;-58
2022/02/07 05:28:29;;;;;;;26.50;20.23;;;4.70;65.70;;;;;;5073710;28;20499;-58
2022/02/07 05:30:55;;;;;;;21.40;12.02;;;4.80;65.40;;;;;;5070694;28;20025;-59
2022/02/07 05:33:20;;;;;;;25.45;18.52;;;4.70;65.40;;;;;;5066871;28;20032;-59
2022/02/07 05:35:46;;;;;;;22.98;12.45;;;4.80;65.70;;;;;;5073555;28;20116;-58
2022/02/07 05:38:12;;;;;;;23.15;17.98;;;4.80;65.60;;;;;;5073407;28;20095;-57
2022/02/07 05:40:44;;;;;;;21.38;11.85;;;4.80;65.60;;;;;;5073427;28;20040;-59
2022/02/07 05:43:13;;;;;;;28.75;20.90;;;4.80;65.50;;;;;;5086752;28;20031;-59
2022/02/07 05:45:39;;;;;;;27.48;20.25;;;4.80;65.50;;;;;;5059923;28;20028;-58
2022/02/07 05:48:05;;;;;;;23.80;13.48;;;4.90;65.50;;;;;;5073179;28;20025;-58
2022/02/07 05:50:30;;;;;;;25.25;18.70;;;4.90;65.50;;;;;;5073554;28;20020;-58
2022/02/07 05:52:58;;;;;;;24.52;18.48;;;4.90;65.60;;;;;;5063577;28;20532;-59
2022/02/07 05:55:24;;;;;;;20.63;10.95;;;5.00;65.50;;;;;;5072862;28;20020;-59
2022/02/07 05:57:49;;;;;;;19.80;15.25;;;5.00;65.30;;;;;;5061354;28;20090;-58
2022/02/07 06:00:15;;;;;;;18.08;15.15;;;5.00;65.10;;;;;;5072882;28;20020;-59
2022/02/07 06:02:41;;;;;;;18.75;11.73;;;5.10;64.90;;;;;;5073272;28;20016;-58
2022/02/07 06:05:07;;;;;;;18.70;14.68;;;5.00;64.80;;;;;;5060287;28;20056;-59
2022/02/07 06:07:33;;;;;;;16.48;14.20;;;5.10;65.00;;;;;;5079903;28;20028;-59
2022/02/07 06:09:59;;;;;;;14.00;8.75;;;5.20;64.90;;;;;;5078297;28;20047;-58
2022/02/07 06:12:24;;;;;;;16.58;9.00;;;5.10;64.80;;;;;;5072841;28;20020;-59
2022/02/07 06:14:51;;;;;;;12.43;8.88;;;5.10;65.10;;;;;;5072706;28;20032;-58
2022/02/07 06:17:17;;;;;;;12.02;7.88;;;5.10;65.00;;;;;;5073047;28;20358;-59
2022/02/07 06:19:43;;;;;;;11.68;8.40;;;5.10;65.10;;;;;;5072903;28;20032;-58
2022/02/07 06:22:08;;;;;;;11.20;8.50;;;5.10;65.00;;;;;;5072667;28;20025;-58
2022/02/07 06:24:34;;;;;;;13.43;7.85;;;5.10;65.10;;;;;;5073162;28;20039;-58
2022/02/07 06:27:00;;;;;;;12.63;8.48;;;5.10;65.00;;;;;;5072584;28;20025;-58
2022/02/07 06:29:25;;;;;;;12.30;7.18;;;5.10;65.20;;;;;;5069835;28;20028;-59
2022/02/07 06:31:51;;;;;;;10.23;7.10;;;5.10;65.10;;;;;;5066389;28;20024;-59
2022/02/07 06:34:17;;;;;;;9.48;6.78;;;5.10;65.10;;;;;;5071282;28;20076;-58
2022/02/07 06:36:42;;;;;;;13.18;8.15;;;5.10;65.00;;;;;;5072587;28;20024;-58
2022/02/07 06:39:08;;;;;;;9.88;6.57;;;5.10;64.90;;;;;;5072537;28;20040;-60
2022/02/07 06:41:34;;;;;;;11.57;8.45;;;5.00;65.00;;;;;;5070550;28;20039;-60
2022/02/07 06:44:00;;;;;;;17.55;8.20;;;5.10;65.00;;;;;;5072847;28;20555;-60
2022/02/07 06:46:26;;;;;;;12.38;8.68;;;5.00;65.00;;;;;;5066950;28;20036;-60
2022/02/07 06:48:52;;;;;;;14.77;7.90;;;5.00;64.80;;;;;;5066000;28;20656;-59
2022/02/07 06:51:17;;;;;;;12.80;8.93;;;5.00;64.80;;;;;;5075722;28;20015;-59
2022/02/07 06:53:43;;;;;;;8.48;6.78;;;5.00;64.80;;;;;;5060992;28;20109;-59
2022/02/07 06:56:09;;;;;;;11.50;7.50;;;4.90;64.80;;;;;;5064565;28;20112;-59
2022/02/07 06:58:35;;;;;;;10.57;7.18;;;4.90;64.80;;;;;;5069010;28;20036;-59
2022/02/07 07:01:01;;;;;;;11.82;7.60;;;4.90;64.80;;;;;;5063860;28;20041;-60
2022/02/07 07:03:31;;;;;;;12.65;8.02;;;4.90;65.00;;;;;;5063708;28;20036;-60
2022/02/07 07:05:57;;;;;;;13.88;7.30;;;4.90;64.80;;;;;;5065696;28;20044;-59
2022/02/07 07:08:23;;;;;;;10.48;6.88;;;4.90;64.70;;;;;;5058966;28;20037;-60
2022/02/07 07:10:49;;;;;;;10.30;7.40;;;4.80;64.50;;;;;;5060098;28;20060;-58
2022/02/07 07:13:22;;;;;;;13.63;7.15;;;4.80;64.60;;;;;;5065323;28;20024;-59
2022/02/07 07:18:33;;;;;;;12.45;8.77;;;4.80;64.80;;;;;;5033724;28;20443;-59
2022/02/07 07:20:59;;;;;;;15.35;12.25;;;4.70;64.70;;;;;;5059277;28;20078;-59
2022/02/07 07:23:25;;;;;;;24.15;12.00;;;4.80;64.70;;;;;;5062336;28;20094;-60
2022/02/07 07:25:50;;;;;;;31.85;20.65;;;4.80;64.70;;;;;;5073229;28;20032;-59
2022/02/07 07:28:18;;;;;;;28.95;20.38;;;4.90;64.80;;;;;;5064145;28;20033;-59
2022/02/07 07:30:51;;;;;;;36.17;22.67;;;5.00;64.50;;;;;;5062599;28;20429;-59
2022/02/07 07:33:21;;;;;;;29.63;15.55;;;5.10;64.20;;;;;;5064555;28;20024;-60
2022/02/07 07:35:47;;;;;;;28.35;14.43;;;5.20;64.40;;;;;;5064217;28;20044;-60
2022/02/07 07:38:12;;;;;;;25.98;18.30;;;5.20;64.50;;;;;;5068514;28;20384;-60
2022/02/07 07:40:39;;;;;;;18.35;10.85;;;5.30;64.20;;;;;;5072765;28;20028;-60
2022/02/07 07:43:07;;;;;;;16.20;9.48;;;5.40;64.10;;;;;;5073586;28;20028;-60
2022/02/07 07:45:36;;;;;;;10.65;7.15;;;5.40;64.20;;;;;;5073855;28;20037;-59
2022/02/07 07:48:08;;;;;;;10.77;7.50;;;5.50;64.10;;;;;;5070206;28;20589;-59
2022/02/07 07:50:44;;;;;;;9.00;5.97;;;5.50;63.90;;;;;;5062575;28;20032;-59
2022/02/07 07:53:28;;;;;;;13.15;8.20;;;5.50;63.80;;;;;;5059735;28;20044;-60
2022/02/07 08:03:51;;;;;;;19.05;9.68;;;5.60;63.60;;;;;;5065775;28;20028;-60
2022/02/07 08:06:25;;;;;;;16.10;9.80;;;5.50;63.70;;;;;;5065222;28;20094;-59
2022/02/07 08:11:30;;;;;;;16.88;9.18;;;5.60;63.50;;;;;;5061423;28;20111;-59
2022/02/07 08:13:57;;;;;;;11.43;6.68;;;5.60;63.50;;;;;;5062932;28;20032;-60
2022/02/07 08:16:22;;;;;;;11.68;7.65;;;5.60;63.60;;;;;;5056717;28;20025;-60
2022/02/07 08:18:48;;;;;;;9.90;6.80;;;5.60;63.50;;;;;;5063186;28;20399;-59
2022/02/07 08:21:15;;;;;;;10.63;7.90;;;5.60;63.40;;;;;;5059826;28;20115;-60
2022/02/07 08:23:40;;;;;;;12.02;7.60;;;5.70;63.30;;;;;;5060642;28;20028;-60
2022/02/07 08:26:07;;;;;;;8.95;7.03;;;5.70;63.40;;;;;;5056516;28;20077;-59
2022/02/07 08:28:33;;;;;;;11.95;7.45;;;5.80;63.60;;;;;;5059491;28;20021;-59
2022/02/07 08:30:59;;;;;;;10.85;7.45;;;5.90;63.70;;;;;;5053010;28;20033;-59
2022/02/07 08:33:25;;;;;;;12.00;7.90;;;6.00;63.80;;;;;;5055565;28;20458;-59
2022/02/07 08:35:50;;;;;;;11.30;8.68;;;6.10;63.70;;;;;;5058590;28;20041;-60
2022/02/07 08:38:18;;;;;;;15.93;8.30;;;6.20;63.70;;;;;;5058718;28;20392;-60
2022/02/07 08:40:45;;;;;;;11.88;8.50;;;6.30;63.60;;;;;;5059959;28;20036;-60
2022/02/07 08:43:11;;;;;;;10.73;8.43;;;6.40;63.40;;;;;;5060900;28;20021;-59
2022/02/07 08:45:37;;;;;;;13.50;7.80;;;6.40;63.40;;;;;;5060264;28;20032;-60
2022/02/07 08:48:03;;;;;;;9.73;7.05;;;6.40;63.30;;;;;;5055848;28;20068;-59
2022/02/07 08:50:29;;;;;;;11.23;7.32;;;6.40;63.60;;;;;;5056124;28;20116;-59
2022/02/07 08:52:57;;;;;;;13.13;7.25;;;6.40;63.60;;;;;;5053470;28;20673;-60
2022/02/07 08:55:31;;;;;;;14.70;9.05;;;6.40;63.50;;;;;;5053676;28;20435;-60
2022/02/07 08:58:03;;;;;;;9.85;7.28;;;6.40;63.60;;;;;;5056700;28;20108;-60
2022/02/07 09:03:22;;;;;;;12.35;8.30;;;6.40;64.20;;;;;;5053014;28;20040;-59
2022/02/07 09:06:07;;;;;;;10.77;6.90;;;6.40;64.30;;;;;;5054893;28;20077;-59
2022/02/07 09:11:09;;;;;;;12.93;8.30;;;6.40;64.30;;;;;;5060189;28;20048;-60
2022/02/07 09:13:38;;;;;;;15.90;9.57;;;6.30;64.30;;;;;;5059417;28;20043;-58
2022/02/07 09:16:17;;;;;;;12.40;7.95;;;6.30;64.40;;;;;;5054498;28;20024;-60
2022/02/07 09:18:47;;;;;;;8.70;6.60;;;6.30;64.50;;;;;;5059433;28;20506;-59
2022/02/07 09:21:14;;;;;;;15.07;8.70;;;6.20;64.50;;;;;;5054053;28;20033;-60
2022/02/07 09:23:40;;;;;;;12.82;8.27;;;6.20;64.60;;;;;;5057534;28;20028;-59
2022/02/07 09:26:07;;;;;;;11.88;7.45;;;6.20;64.70;;;;;;5056152;28;20032;-60
2022/02/07 09:28:33;;;;;;;13.35;8.05;;;6.10;64.70;;;;;;5052449;28;20033;-58
2022/02/07 09:30:59;;;;;;;12.73;7.85;;;6.10;64.90;;;;;;5054618;28;20420;-59
2022/02/07 09:33:26;;;;;;;12.35;9.38;;;6.10;65.00;;;;;;5051647;28;20034;-59
2022/02/07 09:35:54;;;;;;;18.80;10.85;;;6.10;65.10;;;;;;5050425;28;20103;-58
2022/02/07 09:38:21;;;;;;;22.05;11.52;;;6.10;65.10;;;;;;5050524;28;20033;-60
2022/02/07 09:40:52;;;;;;;30.90;14.73;;;6.00;65.20;;;;;;5056439;28;21030;-60
2022/02/07 09:43:25;;;;;;;29.73;13.63;;;5.90;65.50;;;;;;5055664;28;20154;-59
2022/02/07 09:45:51;;;;;;;23.05;12.57;;;5.80;65.90;;;;;;5051786;28;20741;-60
2022/02/07 09:48:19;;;;;;;24.55;12.18;;;5.90;66.10;;;;;;5056592;28;20029;-59
2022/02/07 09:50:45;;;;;;;20.55;13.25;;;5.90;66.00;;;;;;5057516;28;20128;-59
2022/02/07 09:53:11;;;;;;;16.80;11.10;;;6.00;66.20;;;;;;5053328;28;20151;-60
2022/02/07 09:55:37;;;;;;;19.23;13.60;;;6.10;66.30;;;;;;5057583;28;20020;-60
2022/02/07 09:58:04;;;;;;;16.98;12.43;;;6.20;66.10;;;;;;5054420;28;20036;-58
2022/02/07 10:00:34;;;;;;;15.48;10.20;;;6.30;65.70;;;;;;5052094;28;20129;-60
2022/02/07 10:03:32;;;;;;;15.20;11.52;;;6.30;65.60;;;;;;5055270;28;20128;-60
2022/02/07 10:05:55;;;;;;;12.23;8.43;;;6.30;65.30;;;;;;5056893;28;20098;-60
2022/02/07 10:16:37;;;;;;;12.23;8.40;;;5.90;65.90;;;;;;5060343;28;20133;-59
2022/02/07 10:19:58;;;;;;;15.82;9.10;;;5.90;66.10;;;;;;5050137;28;20584;-60
2022/02/07 10:38:53;;;;;;;12.45;7.05;;;6.50;66.00;;;;;;5050770;28;20584;-59
2022/02/07 10:42:11;;;;;;;12.75;8.25;;;6.50;65.90;;;;;;5056056;28;20036;-60
2022/02/07 10:44:47;;;;;;;8.45;6.30;;;6.70;65.70;;;;;;5053393;28;20149;-60
2022/02/07 10:50:00;;;;;;;10.85;8.07;;;6.90;65.40;;;;;;5054945;28;20094;-60
2022/02/07 10:52:28;;;;;;;16.27;10.05;;;7.00;65.20;;;;;;5053426;28;20036;-60
2022/02/07 10:54:53;;;;;;;13.50;8.80;;;7.10;65.00;;;;;;5053908;28;20111;-60
2022/02/07 10:57:20;;;;;;;12.50;10.25;;;7.20;64.80;;;;;;5055630;28;20163;-60
2022/02/07 10:59:47;;;;;;;13.32;8.65;;;7.30;64.50;;;;;;5052594;28;20024;-60
2022/02/07 11:04:46;;;;;;;17.80;11.52;;;7.40;64.40;;;;;;5054643;28;20078;-60
2022/02/07 11:07:13;;;;;;;21.02;14.88;;;7.40;64.10;;;;;;5050114;28;20032;-60
2022/02/07 11:20:07;;;;;;;14.57;9.98;;;7.50;63.00;;;;;;5064254;28;20082;-60
2022/02/07 11:28:21;;;;;;;11.98;8.68;;;7.40;62.40;;;;;;5031853;28;20079;-60
2022/02/07 11:31:05;;;;;;;12.70;10.15;;;7.40;62.70;;;;;;5059754;28;20027;-60
2022/02/07 11:33:41;;;;;;;12.63;8.68;;;7.30;62.70;;;;;;5055137;28;20493;-60
2022/02/07 11:36:23;;;;;;;13.63;9.55;;;7.30;62.80;;;;;;5055767;28;20045;-60
2022/02/07 11:38:59;;;;;;;11.77;8.65;;;7.30;62.90;;;;;;5057304;28;20139;-59
2022/02/07 11:41:25;;;;;;;13.25;9.80;;;7.30;62.90;;;;;;5056809;28;20040;-60
2022/02/07 11:43:51;;;;;;;11.35;8.43;;;7.20;62.80;;;;;;5063555;28;20412;-61
2022/02/07 11:46:17;;;;;;;11.88;9.82;;;7.20;63.00;;;;;;5058158;28;20303;-60
2022/02/07 11:48:47;;;;;;;12.75;10.50;;;7.20;63.30;;;;;;5056277;28;20040;-60
2022/02/07 11:51:28;;;;;;;13.15;9.68;;;7.10;63.20;;;;;;5056809;28;20582;-60
2022/02/07 11:53:59;;;;;;;13.17;8.50;;;7.10;63.40;;;;;;5061481;28;20027;-60
2022/02/07 12:02:05;;;;;;;11.75;8.98;;;6.90;64.00;;;;;;5058808;28;20397;-60
2022/02/07 12:04:31;;;;;;;14.98;9.77;;;6.90;64.10;;;;;;5061095;28;20032;-60
2022/02/07 12:07:17;;;;;;;15.35;10.38;;;6.90;64.30;;;;;;5056644;28;20517;-60
2022/02/07 12:12:47;;;;;;;17.83;10.85;;;6.90;64.80;;;;;;5061310;28;20040;-60
2022/02/07 12:15:37;;;;;;;14.93;9.82;;;6.90;65.40;;;;;;5057067;28;20605;-60
2022/02/07 12:18:12;;;;;;;12.38;9.13;;;6.90;65.50;;;;;;5056287;28;20052;-60
2022/02/07 12:20:38;;;;;;;13.75;11.25;;;6.80;65.80;;;;;;5059295;28;20028;-60
2022/02/07 12:23:16;;;;;;;14.82;11.07;;;6.70;66.50;;;;;;5068601;28;20093;-60
2022/02/07 12:25:47;;;;;;;18.70;12.13;;;6.70;66.90;;;;;;5060058;28;20029;-60
2022/02/07 12:28:20;;;;;;;15.43;10.70;;;6.70;67.30;;;;;;5060159;28;20037;-60
2022/02/07 12:31:02;;;;;;;15.85;12.38;;;6.70;67.60;;;;;;5060170;28;20028;-61
2022/02/07 12:33:32;;;;;;;15.38;9.50;;;6.60;67.80;;;;;;5066081;28;20094;-60
2022/02/07 12:35:58;;;;;;;20.20;14.70;;;6.60;67.90;;;;;;5064463;28;20028;-60
2022/02/07 12:38:25;;;;;;;16.52;9.80;;;6.60;68.40;;;;;;5055617;28;20032;-60
2022/02/07 12:40:52;;;;;;;16.85;11.27;;;6.50;68.50;;;;;;5060549;28;20037;-60
2022/02/07 12:43:21;;;;;;;18.38;12.65;;;6.50;68.80;;;;;;5062942;28;20354;-60
2022/02/07 12:45:48;;;;;;;16.33;10.80;;;6.40;69.00;;;;;;5056401;28;20063;-60
2022/02/07 12:48:19;;;;;;;17.35;10.55;;;6.30;69.10;;;;;;5063377;28;20032;-60
2022/02/07 12:50:51;;;;;;;18.40;12.98;;;6.30;69.40;;;;;;5072570;28;20122;-60
2022/02/07 12:53:24;;;;;;;16.88;13.70;;;6.30;69.70;;;;;;5055886;28;20037;-60
2022/02/07 12:55:56;;;;;;;13.60;9.77;;;6.20;70.00;;;;;;5052653;28;20095;-60
2022/02/07 12:58:35;;;;;;;13.27;10.35;;;6.20;70.00;;;;;;5063817;28;20032;-60
2022/02/07 13:01:19;;;;;;;16.70;12.70;;;6.10;70.30;;;;;;5058920;28;20047;-60
2022/02/07 13:03:52;;;;;;;13.52;8.90;;;6.10;70.50;;;;;;5058518;28;20033;-60
2022/02/07 13:06:25;;;;;;;15.88;10.13;;;6.00;70.50;;;;;;5056890;28;20481;-60
2022/02/07 13:08:51;;;;;;;15.73;9.80;;;6.00;70.90;;;;;;5067889;28;20031;-60
2022/02/07 13:11:26;;;;;;;14.57;9.38;;;5.90;71.00;;;;;;5060370;28;20033;-60
2022/02/07 13:13:53;;;;;;;13.82;9.88;;;5.90;71.10;;;;;;5052306;28;20101;-60
2022/02/07 13:16:20;;;;;;;12.85;8.13;;;5.90;71.40;;;;;;5059027;28;20549;-60
2022/02/07 13:18:46;;;;;;;17.77;11.07;;;5.90;71.60;;;;;;5060746;28;20450;-60
2022/02/07 13:21:16;;;;;;;13.05;9.30;;;5.90;71.90;;;;;;5061247;28;20029;-60
2022/02/07 13:23:42;;;;;;;17.85;12.50;;;5.90;72.10;;;;;;5057156;28;20037;-60
2022/02/07 13:26:11;;;;;;;14.73;11.20;;;5.90;72.70;;;;;;5056708;28;20024;-60
2022/02/07 13:28:40;;;;;;;15.13;11.93;;;5.90;72.60;;;;;;5059992;28;20389;-60
2022/02/07 13:31:06;;;;;;;21.83;14.00;;;5.90;72.90;;;;;;5060813;28;20053;-60
2022/02/07 13:34:18;;;;;;;26.05;20.48;;;6.00;72.90;;;;;;5069734;28;20067;-60
2022/02/07 13:36:48;;;;;;;19.33;14.70;;;6.10;73.40;;;;;;5047945;28;20068;-60
2022/02/07 13:39:14;;;;;;;21.75;17.20;;;6.10;73.20;;;;;;5056693;28;20118;-59
2022/02/07 13:41:40;;;;;;;31.80;23.73;;;6.10;73.00;;;;;;5060050;28;20078;-61
2022/02/07 13:44:09;;;;;;;36.47;32.67;;;6.20;73.30;;;;;;5063268;28;20465;-60
2022/02/07 13:46:34;;;;;;;28.55;22.15;;;6.20;73.50;;;;;;5059372;28;20468;-60
2022/02/07 13:49:01;;;;;;;26.67;18.58;;;6.20;73.50;;;;;;5056926;28;20083;-60
2022/02/07 13:51:28;;;;;;;23.42;16.48;;;6.30;73.50;;;;;;5060748;28;20043;-60
2022/02/07 13:53:56;;;;;;;23.45;13.73;;;6.30;73.60;;;;;;5061786;28;20021;-60
2022/02/07 13:56:30;;;;;;;27.42;15.57;;;6.30;73.40;;;;;;5056011;28;20119;-60
2022/02/07 13:59:10;;;;;;;46.95;24.52;;;6.30;73.50;;;;;;5055651;28;20090;-60
2022/02/07 14:01:35;;;;;;;53.45;26.17;;;6.30;73.80;;;;;;5064040;28;20029;-60
2022/02/07 14:04:01;;;;;;;65.78;31.38;;;6.30;73.70;;;;;;5061361;28;20036;-60
2022/02/07 14:06:29;;;;;;;64.57;31.17;;;6.30;73.80;;;;;;5063141;28;20032;-61
2022/02/07 14:08:57;;;;;;;61.80;35.47;;;6.30;74.00;;;;;;5054047;28;20032;-60
2022/02/07 14:11:27;;;;;;;39.05;19.33;;;6.30;74.40;;;;;;5056506;28;20135;-60
2022/02/07 14:13:55;;;;;;;27.35;16.13;;;6.40;74.20;;;;;;5063122;28;20025;-60
2022/02/07 14:16:23;;;;;;;25.02;16.05;;;6.40;74.20;;;;;;5057838;28;20427;-60
2022/02/07 14:18:50;;;;;;;18.23;12.52;;;6.40;74.50;;;;;;5054145;28;20036;-60
2022/02/07 14:21:17;;;;;;;17.15;10.50;;;6.40;74.50;;;;;;5057638;28;20048;-60
2022/02/07 14:23:47;;;;;;;17.45;12.45;;;6.40;74.40;;;;;;5060155;28;20032;-60
2022/02/07 14:26:16;;;;;;;14.32;9.98;;;6.40;74.70;;;;;;5058861;28;20032;-60
2022/02/07 14:28:47;;;;;;;15.70;9.45;;;6.40;74.60;;;;;;5059969;28;20035;-60
2022/02/07 14:31:14;;;;;;;16.67;9.05;;;6.40;74.60;;;;;;5067345;28;20032;-60
2022/02/07 14:33:41;;;;;;;14.63;10.75;;;6.40;75.30;;;;;;5064499;28;20024;-60
2022/02/07 14:36:07;;;;;;;20.88;10.20;;;6.40;74.80;;;;;;5060796;28;20058;-60
2022/02/07 14:38:33;;;;;;;15.32;10.38;;;6.40;74.50;;;;;;5057160;28;20616;-60
2022/02/07 14:40:59;;;;;;;19.02;10.48;;;6.40;74.60;;;;;;5056437;28;20043;-60
2022/02/07 14:43:32;;;;;;;22.55;14.68;;;6.40;74.60;;;;;;5057772;28;20377;-60
2022/02/07 14:48:39;;;;;;;15.02;9.25;;;6.40;74.60;;;;;;5059955;28;20027;-60
2022/02/07 14:51:06;;;;;;;18.35;11.95;;;6.40;74.60;;;;;;5058505;28;20052;-60
2022/02/07 14:53:36;;;;;;;15.57;9.35;;;6.40;74.60;;;;;;5059816;28;20115;-60
2022/02/07 14:56:04;;;;;;;19.90;10.68;;;6.40;74.40;;;;;;5058027;28;20048;-60
2022/02/07 14:58:29;;;;;;;17.08;9.80;;;6.50;74.50;;;;;;5063162;28;20089;-60
2022/02/07 15:00:55;;;;;;;17.95;10.02;;;6.50;74.50;;;;;;5063668;28;20036;-60
2022/02/07 15:03:22;;;;;;;15.25;10.82;;;6.50;74.30;;;;;;5054897;28;20459;-60
2022/02/07 15:05:53;;;;;;;15.10;8.65;;;6.50;74.50;;;;;;5056337;28;20039;-60
2022/02/07 15:08:19;;;;;;;16.92;11.13;;;6.50;74.30;;;;;;5063345;28;20025;-60
2022/02/07 15:10:44;;;;;;;14.70;8.82;;;6.50;74.40;;;;;;5058993;28;20109;-60
2022/02/07 15:13:10;;;;;;;15.45;10.85;;;6.50;74.20;;;;;;5058201;28;20063;-60
2022/02/07 15:15:36;;;;;;;14.75;8.40;;;6.50;74.40;;;;;;5053660;28;20051;-60
2022/02/07 15:18:05;;;;;;;14.00;9.23;;;6.50;74.10;;;;;;5049239;28;20032;-61
2022/02/07 15:20:31;;;;;;;14.95;10.93;;;6.60;74.20;;;;;;5053762;28;20028;-60
2022/02/07 15:22:57;;;;;;;13.45;9.07;;;6.60;74.80;;;;;;5052078;28;20127;-60
2022/02/07 15:25:34;;;;;;;16.30;11.25;;;6.60;74.10;;;;;;5058234;28;20056;-60
2022/02/07 15:28:04;;;;;;;14.10;9.23;;;6.60;74.10;;;;;;5054419;28;20130;-60
2022/02/07 15:30:35;;;;;;;12.02;9.50;;;6.60;73.80;;;;;;5057157;28;20676;-60
2022/02/07 15:33:03;;;;;;;14.95;9.73;;;6.60;74.00;;;;;;5059026;28;20029;-60
2022/02/07 15:35:29;;;;;;;15.18;10.77;;;6.60;73.90;;;;;;5065022;28;20045;-60
2022/02/07 15:37:55;;;;;;;20.73;12.65;;;6.60;74.10;;;;;;5059081;28;20032;-60
2022/02/07 15:40:21;;;;;;;13.55;9.20;;;6.70;74.10;;;;;;5069863;28;20032;-60
2022/02/07 15:42:47;;;;;;;16.48;11.93;;;6.70;74.00;;;;;;5055603;28;20100;-60
2022/02/07 15:45:16;;;;;;;14.05;10.48;;;6.70;74.00;;;;;;5055129;28;20024;-60
2022/02/07 15:47:43;;;;;;;13.13;10.00;;;6.70;74.00;;;;;;5053322;28;20098;-60
2022/02/07 15:50:12;;;;;;;14.65;10.95;;;6.60;73.90;;;;;;5065577;28;20160;-61